createdAt,value
2019-02-15T00:00:55.898Z,31.05
2019-02-15T00:03:24.303Z,32.60
2019-02-15T00:05:52.707Z,27.80
2019-02-15T00:08:23.612Z,24.15
2019-02-15T00:10:52.057Z,32.28
2019-02-15T00:13:20.448Z,32.88
2019-02-15T00:15:48.864Z,33.20
2019-02-15T00:18:18.906Z,32.05
2019-02-15T00:20:48.938Z,31.17
2019-02-15T00:23:17.400Z,25.65
2019-02-15T00:25:45.772Z,25.32
2019-02-15T00:28:14.195Z,26.97
2019-02-15T00:30:42.641Z,26.82
2019-02-15T00:33:11.041Z,28.38
2019-02-15T00:35:39.468Z,31.90
2019-02-15T00:38:07.872Z,30.32
2019-02-15T00:40:36.272Z,25.52
2019-02-15T00:43:04.705Z,26.23
2019-02-15T00:45:34.754Z,29.80
2019-02-15T00:48:04.830Z,25.35
2019-02-15T00:50:37.660Z,24.52
2019-02-15T00:53:07.699Z,29.57
2019-02-15T00:55:50.065Z,27.30
2019-02-15T00:58:21.737Z,26.52
2019-02-15T01:00:57.718Z,23.57
2019-02-15T01:03:30.680Z,24.70
2019-02-15T01:06:00.749Z,23.87
2019-02-15T01:08:49.145Z,33.35
2019-02-15T01:11:28.402Z,31.48
2019-02-15T01:13:56.800Z,25.17
2019-02-15T01:16:25.257Z,27.73
2019-02-15T01:18:53.759Z,23.52
2019-02-15T01:21:22.169Z,22.90
2019-02-15T01:23:50.572Z,22.52
2019-02-15T01:26:20.667Z,25.35
2019-02-15T01:28:56.416Z,25.97
2019-02-15T01:31:41.302Z,19.27
2019-02-15T01:34:17.712Z,21.90
2019-02-15T01:37:04.453Z,20.43
2019-02-15T01:39:37.543Z,23.45
2019-02-15T01:42:07.591Z,25.52
2019-02-15T01:44:37.647Z,23.02
2019-02-15T01:47:07.683Z,21.75
2019-02-15T01:49:36.156Z,29.05
2019-02-15T01:52:04.551Z,21.23
2019-02-15T01:54:32.968Z,22.85
2019-02-15T01:57:01.373Z,24.60
2019-02-15T01:59:29.781Z,19.98
2019-02-15T02:01:58.255Z,20.15
2019-02-15T02:04:26.654Z,21.25
2019-02-15T02:06:55.228Z,27.87
2019-02-15T02:09:23.668Z,23.83
2019-02-15T02:11:52.069Z,18.27
2019-02-15T02:14:20.472Z,25.15
2019-02-15T02:16:48.938Z,23.15
2019-02-15T02:19:17.381Z,24.43
2019-02-15T02:21:45.819Z,22.85
2019-02-15T02:24:14.194Z,18.20
2019-02-15T02:26:42.708Z,22.55
2019-02-15T02:29:11.104Z,20.05
2019-02-15T02:31:39.533Z,20.17
2019-02-15T02:34:07.933Z,23.95
2019-02-15T02:36:55.235Z,19.95
2019-02-15T02:39:23.707Z,28.92
2019-02-15T02:41:52.174Z,23.00
2019-02-15T02:44:20.578Z,22.27
2019-02-15T02:46:49.092Z,20.95
2019-02-15T02:49:17.510Z,23.30
2019-02-15T02:51:45.973Z,22.27
2019-02-15T02:54:14.449Z,21.23
2019-02-15T02:56:42.851Z,18.52
2019-02-15T02:59:11.246Z,21.48
2019-02-15T03:01:39.688Z,23.55
2019-02-15T03:04:08.093Z,26.37
2019-02-15T03:06:36.559Z,21.37
2019-02-15T03:09:07.619Z,28.32
2019-02-15T03:11:36.090Z,22.55
2019-02-15T03:14:11.609Z,21.62
2019-02-15T03:16:34.574Z,26.45
2019-02-15T03:19:02.969Z,22.95
2019-02-15T03:21:31.385Z,29.20
2019-02-15T03:23:59.773Z,23.45
2019-02-15T03:26:28.208Z,23.65
2019-02-15T03:28:56.670Z,21.17
2019-02-15T03:31:25.077Z,28.80
2019-02-15T03:33:53.479Z,21.87
2019-02-15T03:36:26.514Z,29.45
2019-02-15T03:39:02.748Z,24.40
2019-02-15T03:41:32.792Z,28.65
2019-02-15T03:44:01.221Z,24.70
2019-02-15T03:46:29.641Z,26.40
2019-02-15T03:48:58.942Z,24.98
2019-02-15T03:51:27.341Z,29.23
2019-02-15T03:53:55.748Z,26.97
2019-02-15T03:56:24.178Z,27.22
2019-02-15T03:58:52.594Z,25.02
2019-02-15T04:01:21.077Z,27.70
2019-02-15T04:03:49.485Z,23.65
2019-02-15T04:06:17.885Z,28.20
2019-02-15T04:08:46.382Z,25.90
2019-02-15T04:11:14.801Z,27.35
2019-02-15T04:13:43.204Z,29.98
2019-02-15T04:16:11.620Z,27.27
2019-02-15T04:18:40.023Z,29.02
2019-02-15T04:21:08.447Z,28.62
2019-02-15T04:23:36.846Z,38.85
2019-02-15T04:26:05.242Z,31.70
2019-02-15T04:28:33.667Z,28.35
2019-02-15T04:31:02.056Z,30.10
2019-02-15T04:33:30.573Z,31.12
2019-02-15T04:35:58.978Z,27.62
2019-02-15T04:38:27.377Z,25.65
2019-02-15T04:40:55.784Z,30.60
2019-02-15T04:43:24.184Z,38.80
2019-02-15T04:45:52.614Z,30.97
2019-02-15T04:48:21.037Z,24.87
2019-02-15T04:50:50.274Z,33.98
2019-02-15T04:53:18.683Z,31.05
2019-02-15T04:55:47.152Z,34.00
2019-02-15T04:58:15.661Z,30.08
2019-02-15T05:00:44.056Z,31.15
2019-02-15T05:03:12.464Z,31.00
2019-02-15T05:05:40.895Z,27.65
2019-02-15T05:08:09.298Z,32.73
2019-02-15T05:10:37.734Z,26.90
2019-02-15T05:13:06.157Z,27.70
2019-02-15T05:15:34.542Z,32.83
2019-02-15T05:18:03.026Z,29.27
2019-02-15T05:20:31.424Z,29.67
2019-02-15T05:22:59.996Z,31.68
2019-02-15T05:25:28.471Z,33.80
2019-02-15T05:27:56.928Z,36.25
2019-02-15T05:30:25.336Z,30.52
2019-02-15T05:32:53.749Z,33.58
2019-02-15T05:35:22.181Z,28.07
2019-02-15T05:37:50.580Z,31.87
2019-02-15T05:40:18.998Z,31.93
2019-02-15T05:42:47.389Z,29.57
2019-02-15T05:45:15.794Z,31.30
2019-02-15T05:47:44.262Z,26.73
2019-02-15T05:50:12.747Z,30.82
2019-02-15T05:52:42.016Z,34.78
2019-02-15T05:55:10.425Z,31.68
2019-02-15T05:57:38.923Z,33.78
2019-02-15T06:00:09.977Z,36.50
2019-02-15T06:02:38.492Z,36.45
2019-02-15T06:05:08.716Z,33.25
2019-02-15T06:07:37.130Z,27.80
2019-02-15T06:10:07.769Z,32.65
2019-02-15T06:12:36.199Z,29.67
2019-02-15T06:15:14.757Z,31.65
2019-02-15T06:17:35.041Z,32.55
2019-02-15T06:20:03.514Z,30.23
2019-02-15T06:22:31.917Z,32.08
2019-02-15T06:25:00.349Z,31.00
2019-02-15T06:27:28.764Z,31.82
2019-02-15T06:29:57.232Z,29.18
2019-02-15T06:32:25.637Z,29.37
2019-02-15T06:34:54.034Z,30.95
2019-02-15T06:37:22.541Z,33.78
2019-02-15T06:39:50.953Z,39.30
2019-02-15T06:42:19.344Z,31.30
2019-02-15T06:44:48.043Z,36.35
2019-02-15T06:47:16.426Z,35.48
2019-02-15T06:49:44.857Z,38.33
2019-02-15T06:52:13.259Z,37.15
2019-02-15T06:54:41.659Z,37.48
2019-02-15T06:57:10.067Z,30.48
2019-02-15T06:59:43.078Z,33.02
2019-02-15T07:02:19.160Z,38.40
2019-02-15T07:04:52.229Z,36.95
2019-02-15T07:07:20.637Z,36.63
2019-02-15T07:09:49.042Z,39.58
2019-02-15T07:12:17.593Z,38.35
2019-02-15T07:14:46.031Z,40.58
2019-02-15T07:17:14.449Z,35.58
2019-02-15T07:19:43.831Z,43.48
2019-02-15T07:22:12.313Z,36.68
2019-02-15T07:24:40.745Z,42.00
2019-02-15T07:27:09.153Z,39.45
2019-02-15T07:29:37.551Z,38.20
2019-02-15T07:32:05.952Z,38.58
2019-02-15T07:34:34.429Z,43.23
2019-02-15T07:37:02.863Z,37.88
2019-02-15T07:39:31.261Z,49.88
2019-02-15T07:41:59.664Z,43.78
2019-02-15T07:44:28.071Z,47.75
2019-02-15T07:46:56.471Z,40.63
2019-02-15T07:49:26.867Z,42.45
2019-02-15T07:51:55.086Z,42.90
2019-02-15T07:54:24.443Z,43.08
2019-02-15T07:56:52.854Z,44.48
2019-02-15T07:59:21.255Z,37.00
2019-02-15T08:01:49.791Z,43.90
2019-02-15T08:04:18.184Z,38.17
2019-02-15T08:06:46.595Z,39.75
2019-02-15T08:09:15.001Z,36.73
2019-02-15T08:11:43.423Z,36.73
2019-02-15T08:14:14.851Z,37.98
2019-02-15T08:16:41.974Z,41.35
2019-02-15T08:19:10.385Z,33.45
2019-02-15T08:21:38.784Z,39.45
2019-02-15T08:24:07.176Z,43.20
2019-02-15T08:26:35.630Z,40.80
2019-02-15T08:29:04.084Z,37.03
2019-02-15T08:31:32.526Z,43.65
2019-02-15T08:34:00.970Z,40.28
2019-02-15T08:36:29.362Z,38.73
2019-02-15T08:38:57.848Z,43.02
2019-02-15T08:41:26.317Z,37.95
2019-02-15T08:43:54.722Z,43.70
2019-02-15T08:46:23.136Z,39.60
2019-02-15T08:48:51.538Z,34.40
2019-02-15T08:51:19.969Z,37.05
2019-02-15T08:53:50.311Z,34.08
2019-02-15T08:56:18.420Z,40.00
2019-02-15T08:58:46.845Z,46.48
2019-02-15T09:01:15.245Z,45.80
2019-02-15T09:03:43.680Z,41.70
2019-02-15T09:06:12.093Z,44.00
2019-02-15T09:08:40.581Z,37.00
2019-02-15T09:11:09.089Z,42.00
2019-02-15T09:13:37.502Z,38.70
2019-02-15T09:16:10.370Z,47.98
2019-02-15T09:18:35.990Z,37.17
2019-02-15T09:21:04.421Z,36.73
2019-02-15T09:23:32.824Z,39.65
2019-02-15T09:26:04.623Z,47.43
2019-02-15T09:28:35.209Z,49.00
2019-02-15T09:31:03.681Z,42.95
2019-02-15T09:33:32.089Z,45.88
2019-02-15T09:36:00.496Z,40.98
2019-02-15T09:38:28.964Z,44.83
2019-02-15T09:40:57.485Z,43.33
2019-02-15T09:43:25.891Z,47.25
2019-02-15T09:45:54.289Z,41.25
2019-02-15T09:48:22.770Z,42.40
2019-02-15T09:50:51.172Z,44.85
2019-02-15T09:53:19.601Z,35.52
2019-02-15T09:55:48.176Z,43.95
2019-02-15T09:58:16.653Z,40.12
2019-02-15T10:00:45.095Z,38.42
2019-02-15T10:03:13.565Z,36.33
2019-02-15T10:05:42.014Z,38.02
2019-02-15T10:08:10.409Z,39.30
2019-02-15T10:10:38.820Z,46.53
2019-02-15T10:13:07.233Z,41.92
2019-02-15T10:15:35.634Z,35.13
2019-02-15T10:18:04.097Z,44.55
2019-02-15T10:20:32.497Z,42.45
2019-02-15T10:23:00.900Z,43.48
2019-02-15T10:25:29.304Z,46.10
2019-02-15T10:27:57.714Z,33.85
2019-02-15T10:30:26.216Z,33.42
2019-02-15T10:32:54.688Z,35.40
2019-02-15T10:35:23.178Z,37.67
2019-02-15T10:37:51.574Z,34.33
2019-02-15T10:40:19.985Z,35.43
2019-02-15T10:42:48.425Z,35.63
2019-02-15T10:45:16.829Z,44.60
2019-02-15T10:47:46.865Z,39.55
2019-02-15T10:50:15.283Z,41.33
2019-02-15T10:52:43.673Z,37.45
2019-02-15T10:55:12.111Z,39.45
2019-02-15T10:57:40.523Z,45.20
2019-02-15T11:00:18.242Z,42.48
2019-02-15T11:02:46.808Z,48.90
2019-02-15T11:05:16.032Z,47.35
2019-02-15T11:07:44.437Z,44.50
2019-02-15T11:10:12.899Z,46.23
2019-02-15T11:12:41.434Z,42.43
2019-02-15T11:15:15.321Z,45.50
2019-02-15T11:17:43.720Z,39.92
2019-02-15T11:20:16.381Z,44.25
2019-02-15T11:22:44.779Z,39.83
2019-02-15T11:25:13.223Z,50.95
2019-02-15T11:27:41.627Z,35.58
2019-02-15T11:30:14.728Z,43.60
2019-02-15T11:32:43.126Z,38.35
2019-02-15T11:35:12.641Z,42.60
2019-02-15T11:37:41.142Z,37.13
2019-02-15T11:40:14.444Z,45.43
2019-02-15T11:42:42.862Z,37.50
2019-02-15T11:45:13.269Z,38.25
2019-02-15T11:47:41.676Z,47.83
2019-02-15T11:50:11.839Z,40.55
2019-02-15T11:52:40.236Z,45.55
2019-02-15T11:55:10.045Z,52.90
2019-02-15T11:57:38.460Z,45.78
2019-02-15T12:00:14.296Z,39.35
2019-02-15T12:02:41.208Z,50.45
2019-02-15T12:05:09.889Z,49.42
2019-02-15T12:07:38.288Z,43.55
2019-02-15T12:10:09.332Z,42.13
2019-02-15T12:12:37.735Z,43.83
2019-02-15T12:15:10.293Z,44.00
2019-02-15T12:17:38.730Z,48.95
2019-02-15T12:20:13.368Z,45.08
2019-02-15T12:22:41.854Z,42.13
2019-02-15T12:25:10.262Z,51.23
2019-02-15T12:27:38.705Z,41.05
2019-02-15T12:30:14.540Z,47.62
2019-02-15T12:32:43.034Z,45.03
2019-02-15T12:35:11.697Z,41.68
2019-02-15T12:37:40.087Z,46.35
2019-02-15T12:40:10.042Z,47.88
2019-02-15T12:42:38.442Z,45.05
2019-02-15T12:45:09.820Z,44.42
2019-02-15T12:47:38.301Z,43.02
2019-02-15T12:50:09.996Z,44.95
2019-02-15T12:52:38.486Z,43.13
2019-02-15T12:55:06.876Z,35.50
2019-02-15T12:57:35.380Z,35.03
2019-02-15T13:00:06.584Z,43.02
2019-02-15T13:05:04.095Z,38.53
2019-02-15T13:07:32.513Z,40.52
2019-02-15T13:10:00.963Z,41.77
2019-02-15T13:12:29.502Z,40.60
2019-02-15T13:14:57.986Z,43.73
2019-02-15T13:17:26.421Z,38.42
2019-02-15T13:19:54.889Z,40.65
2019-02-15T13:22:23.336Z,37.95
2019-02-15T13:24:51.736Z,41.58
2019-02-15T13:27:20.191Z,47.35
2019-02-15T13:29:48.598Z,44.80
2019-02-15T13:32:17.007Z,44.85
2019-02-15T13:34:45.436Z,40.63
2019-02-15T13:37:13.851Z,39.58
2019-02-15T13:39:42.254Z,39.60
2019-02-15T13:42:10.685Z,36.13
2019-02-15T13:44:39.065Z,46.53
2019-02-15T13:47:07.512Z,36.73
2019-02-15T13:49:36.058Z,40.08
2019-02-15T13:52:06.207Z,40.30
2019-02-15T13:54:34.573Z,39.23
2019-02-15T13:57:02.998Z,41.92
2019-02-15T13:59:31.417Z,51.15
2019-02-15T14:01:59.825Z,42.98
2019-02-15T14:04:29.204Z,46.37
2019-02-15T14:06:57.683Z,40.80
2019-02-15T14:09:26.164Z,45.33
2019-02-15T14:11:54.602Z,40.20
2019-02-15T14:14:23.008Z,34.88
2019-02-15T14:16:51.409Z,33.45
2019-02-15T14:19:19.821Z,44.90
2019-02-15T14:21:48.283Z,40.17
2019-02-15T14:24:16.710Z,50.12
2019-02-15T14:26:45.169Z,38.45
2019-02-15T14:29:13.611Z,35.20
2019-02-15T14:31:42.053Z,34.18
2019-02-15T14:34:10.452Z,40.60
2019-02-15T14:36:38.955Z,36.95
2019-02-15T14:39:08.996Z,34.95
2019-02-15T14:41:37.464Z,43.08
2019-02-15T14:44:05.881Z,39.70
2019-02-15T14:46:34.281Z,34.40
2019-02-15T14:49:02.710Z,36.75
2019-02-15T14:51:31.180Z,31.87
2019-02-15T14:53:59.725Z,37.17
2019-02-15T14:56:28.207Z,34.55
2019-02-15T14:58:56.604Z,34.33
2019-02-15T15:01:25.061Z,28.62
2019-02-15T15:03:53.527Z,37.35
2019-02-15T15:06:21.930Z,35.28
2019-02-15T15:08:50.341Z,38.58
2019-02-15T15:11:18.743Z,34.58
2019-02-15T15:13:47.175Z,40.35
2019-02-15T15:16:15.578Z,38.55
2019-02-15T15:18:43.974Z,40.30
2019-02-15T15:21:12.380Z,46.35
2019-02-15T15:23:40.781Z,39.75
2019-02-15T15:26:11.725Z,44.70
2019-02-15T15:28:39.261Z,99.37
2019-02-15T15:31:07.656Z,44.15
2019-02-15T15:33:36.072Z,44.65
2019-02-15T15:36:04.484Z,44.05
2019-02-15T15:38:33.056Z,45.35
2019-02-15T15:41:01.453Z,46.48
2019-02-15T15:43:29.926Z,48.33
2019-02-15T15:45:58.401Z,39.42
2019-02-15T15:48:26.848Z,47.38
2019-02-15T15:50:55.376Z,49.08
2019-02-15T15:53:23.860Z,42.88
2019-02-15T15:55:52.263Z,45.10
2019-02-15T15:58:20.667Z,47.17
2019-02-15T16:00:49.070Z,46.25
2019-02-15T16:03:17.508Z,44.95
2019-02-15T16:05:45.931Z,44.23
2019-02-15T16:08:14.393Z,47.35
2019-02-15T16:10:42.869Z,40.45
2019-02-15T16:13:11.267Z,45.75
2019-02-15T16:15:39.707Z,43.68
2019-02-15T16:18:08.121Z,43.20
2019-02-15T16:20:36.525Z,44.27
2019-02-15T16:23:04.947Z,44.77
2019-02-15T16:25:33.369Z,41.15
2019-02-15T16:28:01.864Z,40.65
2019-02-15T16:30:30.275Z,45.98
2019-02-15T16:32:58.689Z,44.85
2019-02-15T16:35:27.169Z,47.38
2019-02-15T16:37:55.598Z,51.65
2019-02-15T16:40:24.005Z,44.33
2019-02-15T16:42:52.473Z,52.48
2019-02-15T16:45:20.876Z,50.90
2019-02-15T16:47:49.306Z,46.10
2019-02-15T16:50:17.889Z,44.03
2019-02-15T16:52:46.354Z,47.45
2019-02-15T16:55:14.849Z,45.65
2019-02-15T16:57:43.327Z,46.13
2019-02-15T17:00:13.163Z,46.42
2019-02-15T17:02:41.632Z,43.52
2019-02-15T17:05:10.132Z,46.20
2019-02-15T17:07:38.553Z,40.30
2019-02-15T17:10:10.760Z,41.55
2019-02-15T17:12:39.172Z,45.80
2019-02-15T17:15:13.024Z,49.30
2019-02-15T17:17:41.425Z,45.65
2019-02-15T17:20:10.263Z,46.60
2019-02-15T17:22:38.792Z,49.20
2019-02-15T17:25:12.121Z,55.45
2019-02-15T17:27:40.525Z,55.25
2019-02-15T17:30:10.669Z,54.80
2019-02-15T17:32:39.074Z,53.58
2019-02-15T17:35:11.692Z,56.80
2019-02-15T17:37:40.103Z,51.00
2019-02-15T17:40:11.207Z,48.90
2019-02-15T17:42:39.604Z,55.48
2019-02-15T17:45:10.079Z,53.50
2019-02-15T17:47:38.545Z,56.63
2019-02-15T17:50:09.191Z,57.98
2019-02-15T17:52:37.664Z,61.77
2019-02-15T17:55:07.808Z,55.25
2019-02-15T17:57:36.212Z,57.33
2019-02-15T18:00:07.535Z,56.58
2019-02-15T18:02:35.944Z,57.27
2019-02-15T18:05:05.487Z,56.23
2019-02-15T18:07:33.957Z,62.70
2019-02-15T18:10:03.721Z,56.35
2019-02-15T18:12:32.264Z,56.35
2019-02-15T18:15:00.629Z,60.33
2019-02-15T18:17:29.041Z,58.00
2019-02-15T18:19:57.454Z,51.83
2019-02-15T18:22:25.880Z,52.65
2019-02-15T18:24:54.318Z,54.40
2019-02-15T18:27:22.712Z,51.40
2019-02-15T18:29:51.112Z,51.98
2019-02-15T18:32:19.608Z,46.70
2019-02-15T18:34:48.012Z,54.98
2019-02-15T18:37:16.436Z,51.63
2019-02-15T18:39:44.856Z,51.08
2019-02-15T18:42:13.356Z,47.08
2019-02-15T18:44:41.768Z,51.23
2019-02-15T18:47:10.181Z,46.02
2019-02-15T18:49:38.767Z,53.25
2019-02-15T18:52:07.352Z,56.45
2019-02-15T18:54:35.765Z,47.17
2019-02-15T18:57:04.309Z,44.93
2019-02-15T18:59:32.815Z,48.87
2019-02-15T19:02:01.236Z,54.77
2019-02-15T19:04:29.715Z,44.58
2019-02-15T19:06:58.120Z,52.93
2019-02-15T19:09:26.540Z,48.28
2019-02-15T19:11:55.860Z,44.30
2019-02-15T19:14:24.287Z,41.13
2019-02-15T19:16:52.690Z,39.95
2019-02-15T19:19:28.876Z,42.62
2019-02-15T19:21:51.241Z,44.05
2019-02-15T19:24:19.647Z,36.48
2019-02-15T19:26:48.089Z,35.83
2019-02-15T19:29:16.497Z,36.35
2019-02-15T19:31:45.002Z,36.53
2019-02-15T19:34:13.452Z,38.88
2019-02-15T19:36:41.960Z,40.25
2019-02-15T19:39:10.402Z,32.65
2019-02-15T19:41:38.881Z,30.80
2019-02-15T19:44:07.348Z,33.63
2019-02-15T19:46:35.839Z,32.00
2019-02-15T19:49:04.333Z,31.12
2019-02-15T19:51:32.778Z,34.63
2019-02-15T19:54:01.349Z,31.33
2019-02-15T19:56:29.901Z,32.45
2019-02-15T19:58:58.307Z,38.92
2019-02-15T20:01:26.709Z,31.85
2019-02-15T20:03:55.220Z,30.55
2019-02-15T20:06:23.622Z,32.98
2019-02-15T20:08:52.131Z,28.35
2019-02-15T20:11:20.679Z,34.43
2019-02-15T20:13:49.080Z,32.65
2019-02-15T20:16:17.510Z,34.27
2019-02-15T20:18:45.916Z,29.70
2019-02-15T20:21:14.313Z,28.67
2019-02-15T20:23:42.721Z,27.55
2019-02-15T20:26:11.196Z,26.62
2019-02-15T20:28:39.651Z,28.15
2019-02-15T20:31:08.041Z,32.85
2019-02-15T20:33:36.445Z,29.57
2019-02-15T20:36:04.852Z,34.48
2019-02-15T20:38:33.320Z,30.08
2019-02-15T20:41:01.760Z,34.15
2019-02-15T20:43:30.250Z,37.42
2019-02-15T20:45:58.646Z,38.28
2019-02-15T20:48:27.049Z,40.30
2019-02-15T20:50:55.453Z,36.50
2019-02-15T20:53:24.070Z,41.53
2019-02-15T20:55:52.470Z,37.67
2019-02-15T20:58:20.870Z,45.40
2019-02-15T21:00:49.339Z,42.65
2019-02-15T21:03:17.780Z,44.93
2019-02-15T21:05:46.284Z,39.33
2019-02-15T21:08:15.713Z,39.40
2019-02-15T21:10:44.179Z,39.18
2019-02-15T21:13:20.259Z,39.45
2019-02-15T21:15:43.581Z,40.08
2019-02-15T21:18:12.021Z,38.42
2019-02-15T21:20:40.429Z,34.78
2019-02-15T21:23:08.836Z,38.90
2019-02-15T21:25:37.237Z,39.70
2019-02-15T21:28:05.711Z,35.35
2019-02-15T21:30:34.191Z,34.08
2019-02-15T21:33:02.668Z,31.82
2019-02-15T21:35:31.057Z,29.15
2019-02-15T21:37:59.465Z,29.50
2019-02-15T21:40:28.189Z,32.90
2019-02-15T21:42:56.545Z,26.82
2019-02-15T21:45:25.004Z,28.57
2019-02-15T21:47:53.587Z,30.72
2019-02-15T21:50:22.050Z,29.25
2019-02-15T21:52:52.275Z,24.27
2019-02-15T21:55:20.669Z,20.83
2019-02-15T21:57:49.139Z,19.48
2019-02-15T22:00:22.348Z,20.25
2019-02-15T22:02:50.753Z,18.90
2019-02-15T22:05:19.153Z,18.25
2019-02-15T22:07:47.585Z,20.92
2019-02-15T22:10:15.975Z,19.98
2019-02-15T22:12:44.376Z,20.85
2019-02-15T22:15:15.103Z,20.40
2019-02-15T22:17:43.564Z,19.73
2019-02-15T22:20:13.788Z,18.12
2019-02-15T22:22:42.342Z,22.27
2019-02-15T22:25:10.744Z,21.52
2019-02-15T22:27:39.142Z,20.97
2019-02-15T22:30:15.454Z,17.90
2019-02-15T22:32:43.858Z,22.85
2019-02-15T22:35:12.259Z,20.00
2019-02-15T22:37:40.689Z,25.15
2019-02-15T22:40:23.617Z,19.80
2019-02-15T22:42:52.044Z,17.95
2019-02-15T22:45:20.515Z,20.10
2019-02-15T22:47:48.946Z,21.17
2019-02-15T22:50:17.348Z,19.57
2019-02-15T22:52:45.751Z,20.25
2019-02-15T22:55:14.187Z,18.95
2019-02-15T22:57:42.580Z,18.25
2019-02-15T23:00:40.106Z,17.48
2019-02-15T23:03:08.573Z,22.27
2019-02-15T23:05:37.004Z,17.90
2019-02-15T23:08:05.531Z,18.62
2019-02-15T23:10:34.008Z,18.35
2019-02-15T23:13:02.488Z,20.20
2019-02-15T23:15:31.731Z,20.00
2019-02-15T23:18:00.374Z,19.92
2019-02-15T23:20:28.769Z,19.37
2019-02-15T23:22:57.177Z,22.50
2019-02-15T23:25:25.579Z,19.87
2019-02-15T23:27:53.981Z,21.42
2019-02-15T23:30:22.406Z,17.25
2019-02-15T23:32:50.804Z,23.75
2019-02-15T23:35:19.277Z,18.65
2019-02-15T23:37:47.672Z,17.27
2019-02-15T23:40:16.071Z,19.15
2019-02-15T23:42:44.536Z,18.75
2019-02-15T23:45:12.938Z,17.62
2019-02-15T23:47:41.345Z,21.62
2019-02-15T23:50:09.832Z,17.90
2019-02-15T23:52:38.306Z,17.73
2019-02-15T23:55:06.728Z,18.70
2019-02-15T23:57:35.132Z,21.90
